Private Wetterstation Nrnberg - Katzwang
Wetterdaten: Januar 2010
Datum Temp. A. Feuchte A. Luftdruck Regen Wind Richtung Taupunkt Windchill Windben
01.01.2010 1,4 C 94 % 994 hPa 1,0 l/m 0,0 km/h N 0,5 C 1,4 C 1,0 km/h
02.01.2010 -3,8 C 84 % 1014 hPa 0,0 l/m 4,4 km/h N -6,1 C -4,1 C 5,4 km/h
03.01.2010 -1,7 C 87 % 1015 hPa 0,0 l/m 0,3 km/h N -3,6 C -1,7 C 1,4 km/h
04.01.2010 -2,5 C 89 % 1011 hPa 0,0 l/m 2,6 km/h N-NO -4,2 C -2,5 C 3,6 km/h
05.01.2010 -4,3 C 84 % 1003 hPa 0,0 l/m 1,7 km/h N-NO -6,5 C -4,3 C 2,7 km/h
06.01.2010 -4,4 C 84 % 1001 hPa 0,0 l/m 1,0 km/h NO -6,6 C -4,4 C 2,0 km/h
07.01.2010 -2,6 C 84 % 1008 hPa 0,0 l/m 0,0 km/h O-NO -5,0 C -2,6 C 1,0 km/h
08.01.2010 -3,5 C 87 % 1007 hPa 0,0 l/m 8,3 km/h N-NO -5,4 C -5,3 C 9,3 km/h
09.01.2010 -3,6 C 86 % 1004 hPa 0,0 l/m 7,9 km/h N-NO -5,6 C -5,4 C 8,9 km/h
10.01.2010 -3,2 C 88 % 1010 hPa 0,0 l/m 0,7 km/h W-NW -5,0 C -3,2 C 1,7 km/h
11.01.2010 -3,3 C 87 % 1013 hPa 1,0 l/m 0,0 km/h W-NW -5,1 C -3,3 C 1,0 km/h
12.01.2010 -4,5 C 87 % 1011 hPa 0,0 l/m 1,4 km/h O -6,4 C -4,5 C 2,4 km/h
13.01.2010 -5,6 C 87 % 1007 hPa 0,0 l/m 10,8 km/h O-NO -7,4 C -11,0 C 13,4 km/h
14.01.2010 -1,0 C 87 % 1008 hPa 0,0 l/m 7,7 km/h NO -3,0 C -2,9 C 8,7 km/h
15.01.2010 -1,4 C 86 % 1021 hPa 0,0 l/m 1,4 km/h O-NO -3,5 C -1,4 C 2,4 km/h
16.01.2010 -1,6 C 87 % 1017 hPa 0,0 l/m 9,2 km/h O-NO -3,5 C -5,1 C 13,8 km/h
17.01.2010 3,0 C 91 % 1014 hPa 6,2 l/m 7,7 km/h W-NW 1,6 C 1,0 C 8,7 km/h
18.01.2010 2,1 C 90 % 1023 hPa 0,5 l/m 1,2 km/h W-NW 0,7 C 2,1 C 2,2 km/h
19.01.2010 2,1 C 91 % 1019 hPa 0,0 l/m 0,0 km/h N 0,8 C 2,1 C 1,0 km/h
20.01.2010 1,3 C 91 % 1013 hPa 0,5 l/m 0,0 km/h NO -0,0 C 1,3 C 1,0 km/h
21.01.2010 0,3 C 83 % 1020 hPa 0,5 l/m 0,0 km/h N -2,3 C 0,3 C 1,0 km/h
22.01.2010 -1,0 C 82 % 1023 hPa 0,5 l/m 2,8 km/h NO -3,7 C -1,0 C 3,8 km/h
23.01.2010 -2,0 C 82 % 1022 hPa 0,0 l/m 5,4 km/h O -4,7 C -2,8 C 6,4 km/h
24.01.2010 -4,0 C 84 % 1022 hPa 0,0 l/m 8,5 km/h O -6,3 C -7,3 C 10,2 km/h
25.01.2010 -2,2 C 84 % 1025 hPa 0,0 l/m 4,1 km/h O -4,5 C -3,2 C 5,1 km/h
26.01.2010 -6,7 C 82 % 1031 hPa 0,0 l/m 4,9 km/h N-NO -9,3 C -9,4 C 7,8 km/h
27.01.2010 -7,3 C 79 % 1020 hPa 0,0 l/m 5,8 km/h N-NW -10,4 C -10,0 C 6,8 km/h
28.01.2010 -0,3 C 85 % 1001 hPa 0,0 l/m 11,7 km/h W-NW -2,5 C -5,1 C 23,1 km/h
29.01.2010 0,9 C 89 % 986 hPa 1,0 l/m 9,0 km/h W-NW -0,8 C -1,4 C 10,0 km/h
30.01.2010 -1,6 C 81 % 993 hPa 0,0 l/m 6,0 km/h W-NW -4,5 C -3,2 C 7,0 km/h
31.01.2010 -3,0 C 84 % 1004 hPa 0,0 l/m 4,8 km/h W-NW -5,3 C -3,9 C 5,8 km/h
Min-Datum 27.01.10 27.01.10 29.01.10 8 Tage 01.01.10 - 27.01.10 28.01.10 01.01.10
Min-Zeit 08:00 15:20 21:50 - 00:50 - 08:00 02:20 00:50
Minimum -15,4 C 69 % 981 hPa - 0,0 km/h - -17,6 C -18,9 C 1,0 km/h
Max-Datum 01.01.10 01.01.10 26.01.10 17.01.10 28.01.10 - 01.01.10 01.01.10 28.01.10
Max-Zeit 12:30 00:00 18:30 03:00 23:50 - 12:30 12:30 23:50
Maximum 5,1 C 95 % 1033 hPa 6,2 l/m 34,2 km/h
W-NW
- 4,4 C 5,1 C 44,8 km/h
W-NW
Durchschnitt -2,1 C 86 % 1012 hPa #11,4 l/m 4,2 km/h NO -4,1 C -3,2 C 5,8 km/h

Durchschnitt Minimum Temp.-4,3 C
Durchschnitt Maximum Temp.0,0 C